createdAt,value
2022-10-12T00:01:28.541Z,102112.13
2022-10-12T00:03:56.361Z,102109.47
2022-10-12T00:06:25.576Z,102115.88
2022-10-12T00:08:55.760Z,102111.31
2022-10-12T00:11:25.987Z,102119.66
2022-10-12T00:13:54.380Z,102121.72
2022-10-12T00:16:24.253Z,102119.94
2022-10-12T00:18:53.484Z,102120.03
2022-10-12T00:21:21.981Z,102108.41
2022-10-12T00:23:50.437Z,102115.81
2022-10-12T00:26:23.056Z,102113.09
2022-10-12T00:28:56.454Z,102109.75
2022-10-12T00:31:25.521Z,102108.97
2022-10-12T00:33:53.402Z,102116.34
2022-10-12T00:36:23.488Z,102110.03
2022-10-12T00:38:53.857Z,102112.84
2022-10-12T00:41:25.749Z,102105.63
2022-10-12T00:43:58.168Z,102105.81
2022-10-12T00:46:33.693Z,102107.47
2022-10-12T00:49:11.225Z,102112.13
2022-10-12T00:51:42.377Z,102102.22
2022-10-12T00:54:15.384Z,102113.19
2022-10-12T00:56:45.177Z,102106.56
2022-10-12T00:59:17.698Z,102100.84
2022-10-12T01:01:45.494Z,102110.97
2022-10-12T01:04:13.467Z,102106.31
2022-10-12T01:06:42.141Z,102112.81
2022-10-12T01:09:12.562Z,102105.59
2022-10-12T01:11:40.467Z,102102.06
2022-10-12T01:14:09.757Z,102104.78
2022-10-12T01:16:44.021Z,102102.06
2022-10-12T01:19:30.463Z,102113.84
2022-10-12T01:22:04.447Z,102116.78
2022-10-12T01:24:52.680Z,102106.84
2022-10-12T01:27:38.139Z,102096.09
2022-10-12T01:30:16.744Z,102103.38
2022-10-12T01:33:04.195Z,102100.75
2022-10-12T01:35:39.553Z,102090.13
2022-10-12T01:38:18.866Z,102081.06
2022-10-12T01:40:52.238Z,102087.47
2022-10-12T01:43:23.394Z,102081.34
2022-10-12T01:45:52.556Z,102079.56
2022-10-12T01:48:20.482Z,102085.97
2022-10-12T01:50:51.809Z,102078.69
2022-10-12T01:53:31.816Z,102075.97
2022-10-12T01:56:10.070Z,102066.97
2022-10-12T01:58:51.862Z,102073.41
2022-10-12T02:01:30.817Z,102064.41
2022-10-12T02:04:08.673Z,102067.34
2022-10-12T02:06:44.215Z,102070.06
2022-10-12T02:09:20.232Z,102074.72
2022-10-12T02:11:52.298Z,102074.78
2022-10-12T02:14:23.967Z,102072.25
2022-10-12T02:16:57.268Z,102075.75
2022-10-12T02:19:29.812Z,102075.06
2022-10-12T02:22:01.850Z,102074.25
2022-10-12T02:24:31.458Z,102071.63
2022-10-12T02:27:01.430Z,102079.78
2022-10-12T02:29:32.662Z,102068.09
2022-10-12T02:32:08.011Z,102068.97
2022-10-12T02:34:39.423Z,102062.75
2022-10-12T02:37:10.849Z,102055.63
2022-10-12T02:39:48.832Z,102055.72
2022-10-12T02:42:23.613Z,102049.38
2022-10-12T02:44:54.975Z,102054.91
2022-10-12T02:47:27.007Z,102043.25
2022-10-12T02:49:56.372Z,102037.06
2022-10-12T02:52:25.463Z,102040.69
2022-10-12T02:54:53.356Z,102034.44
2022-10-12T02:57:21.181Z,102031.78
2022-10-12T02:59:49.037Z,102030.91
2022-10-12T03:02:16.733Z,102019.13
2022-10-12T03:04:46.069Z,102021.84
2022-10-12T03:07:13.935Z,102027.41
2022-10-12T03:09:41.725Z,102022.03
2022-10-12T03:12:09.580Z,102023.97
2022-10-12T03:14:37.563Z,102022.19
2022-10-12T03:17:05.766Z,102023.09
2022-10-12T03:19:33.720Z,102023.28
2022-10-12T03:22:04.430Z,102018.69
2022-10-12T03:24:32.169Z,102024.31
2022-10-12T03:27:00.336Z,102018.94
2022-10-12T03:29:28.124Z,102015.41
2022-10-12T03:31:55.850Z,102019.09
2022-10-12T03:34:23.724Z,102013.78
2022-10-12T03:36:51.534Z,102009.28
2022-10-12T03:39:23.227Z,102008.41
2022-10-12T03:41:50.976Z,102006.72
2022-10-12T03:44:18.734Z,102006.78
2022-10-12T03:46:46.766Z,102013.19
2022-10-12T03:49:14.516Z,102004.16
2022-10-12T03:51:42.295Z,102003.28
2022-10-12T03:54:10.328Z,102010.66
2022-10-12T03:56:39.711Z,102009.78
2022-10-12T03:59:07.896Z,102009.88
2022-10-12T04:01:35.784Z,102009.06
2022-10-12T04:04:03.684Z,102003.69
2022-10-12T04:06:31.509Z,102007.41
2022-10-12T04:08:59.241Z,102003.88
2022-10-12T04:11:27.061Z,101997.63
2022-10-12T04:13:56.174Z,102011.25
2022-10-12T04:16:26.127Z,102002.34
2022-10-12T04:18:56.666Z,102004.38
2022-10-12T04:21:25.953Z,102006.97
2022-10-12T04:23:53.688Z,102018.06
2022-10-12T04:26:21.480Z,102009.97
2022-10-12T04:28:49.284Z,102009.97
2022-10-12T04:31:20.540Z,102006.38
2022-10-12T04:33:48.323Z,102004.72
2022-10-12T04:36:16.078Z,102002.09
2022-10-12T04:38:43.823Z,102004.81
2022-10-12T04:41:11.578Z,102000.31
2022-10-12T04:43:39.434Z,101988.56
2022-10-12T04:46:07.460Z,101994.94
2022-10-12T04:48:36.670Z,101985.91
2022-10-12T04:51:06.227Z,101991.34
2022-10-12T04:53:34.023Z,101992.38
2022-10-12T04:56:04.290Z,101989.59
2022-10-12T04:58:32.474Z,101993.38
2022-10-12T05:01:00.296Z,101993.38
2022-10-12T05:03:28.105Z,101988.00
2022-10-12T05:05:57.414Z,101987.94
2022-10-12T05:08:25.594Z,101987.94
2022-10-12T05:10:53.445Z,101991.53
2022-10-12T05:13:21.351Z,101986.16
2022-10-12T05:15:49.086Z,101992.38
2022-10-12T05:18:17.302Z,101992.50
2022-10-12T05:20:45.185Z,101985.22
2022-10-12T05:23:14.375Z,101988.72
2022-10-12T05:25:42.220Z,101992.38
2022-10-12T05:28:10.733Z,101988.81
2022-10-12T05:30:39.617Z,101988.81
2022-10-12T05:33:07.442Z,101980.66
2022-10-12T05:35:35.291Z,101983.38
2022-10-12T05:38:03.112Z,101993.38
2022-10-12T05:40:32.219Z,101998.72
2022-10-12T05:43:00.028Z,101998.81
2022-10-12T05:45:27.786Z,101990.72
2022-10-12T05:47:55.870Z,101997.06
2022-10-12T05:50:23.624Z,102004.34
2022-10-12T05:52:51.492Z,101998.09
2022-10-12T05:55:19.287Z,102006.25
2022-10-12T05:57:51.925Z,102002.66
2022-10-12T06:00:20.745Z,102003.69
2022-10-12T06:02:48.999Z,102007.41
2022-10-12T06:05:17.044Z,102011.06
2022-10-12T06:07:44.779Z,102010.19
2022-10-12T06:10:12.843Z,102005.72
2022-10-12T06:12:40.982Z,101996.66
2022-10-12T06:15:11.736Z,101999.38
2022-10-12T06:17:39.594Z,101998.56
2022-10-12T06:20:13.098Z,102003.03
2022-10-12T06:22:41.513Z,102001.34
2022-10-12T06:25:09.816Z,102011.34
2022-10-12T06:27:37.610Z,102007.75
2022-10-12T06:30:07.622Z,102001.44
2022-10-12T06:32:37.352Z,102010.38
2022-10-12T06:35:06.165Z,102014.88
2022-10-12T06:37:50.565Z,102013.78
2022-10-12T06:40:21.566Z,102010.59
2022-10-12T06:42:52.720Z,102013.44
2022-10-12T06:45:44.113Z,102014.16
2022-10-12T06:48:18.839Z,102012.81
2022-10-12T06:50:53.842Z,102013.97
2022-10-12T06:53:25.426Z,102017.84
2022-10-12T06:55:55.703Z,102014.38
2022-10-12T06:58:24.329Z,102012.63
2022-10-12T07:00:53.559Z,102022.75
2022-10-12T07:03:22.950Z,102020.03
2022-10-12T07:05:52.119Z,102013.22
2022-10-12T07:08:19.966Z,102012.81
2022-10-12T07:10:47.841Z,102013.28
2022-10-12T07:13:15.682Z,102008.25
2022-10-12T07:15:43.410Z,102008.69
2022-10-12T07:18:15.912Z,102007.41
2022-10-12T07:20:45.485Z,102007.72
2022-10-12T07:23:16.136Z,102003.56
2022-10-12T07:25:50.895Z,101998.13
2022-10-12T07:28:19.328Z,101994.06
2022-10-12T07:30:47.739Z,101997.09
2022-10-12T07:33:15.602Z,102005.72
2022-10-12T07:36:10.693Z,101999.91
2022-10-12T07:38:33.182Z,102001.59
2022-10-12T07:41:01.443Z,101998.16
2022-10-12T07:43:29.894Z,101993.84
2022-10-12T07:46:01.288Z,101998.25
2022-10-12T07:48:29.341Z,101994.41
2022-10-12T07:51:04.745Z,102001.28
2022-10-12T07:53:51.553Z,101994.25
2022-10-12T07:59:02.249Z,101993.38
2022-10-12T08:01:32.225Z,101992.50
2022-10-12T08:04:02.030Z,102000.63
2022-10-12T08:06:38.835Z,101997.88
2022-10-12T08:09:07.304Z,102007.88
2022-10-12T08:11:40.087Z,102008.53
2022-10-12T08:14:08.646Z,102010.72
2022-10-12T08:16:36.394Z,102009.72
2022-10-12T08:19:04.206Z,102000.00
2022-10-12T08:21:33.301Z,102001.97
2022-10-12T08:24:01.161Z,101995.97
2022-10-12T08:26:29.262Z,102001.56
2022-10-12T08:28:57.345Z,101988.94
2022-10-12T08:31:25.189Z,101992.69
2022-10-12T08:33:52.993Z,101989.16
2022-10-12T08:36:20.966Z,101980.94
2022-10-12T08:38:55.075Z,101985.22
2022-10-12T08:41:38.235Z,101983.25
2022-10-12T08:44:18.650Z,101988.06
2022-10-12T08:46:46.651Z,101985.09
2022-10-12T08:49:20.049Z,101982.53
2022-10-12T08:51:50.945Z,101975.81
2022-10-12T08:54:21.967Z,101977.44
2022-10-12T08:56:50.324Z,101977.09
2022-10-12T08:59:19.826Z,101984.88
2022-10-12T09:02:00.666Z,101986.16
2022-10-12T09:04:40.464Z,101984.78
2022-10-12T09:07:13.625Z,101986.16
2022-10-12T09:09:57.859Z,101986.59
2022-10-12T09:12:39.194Z,101991.50
2022-10-12T09:15:15.461Z,101988.28
2022-10-12T09:17:47.577Z,101992.41
2022-10-12T09:20:20.563Z,101991.91
2022-10-12T09:22:51.429Z,101990.31
2022-10-12T09:25:25.251Z,101985.06
2022-10-12T09:27:53.612Z,101993.84
2022-10-12T09:30:22.125Z,101996.84
2022-10-12T09:33:15.806Z,101990.63
2022-10-12T09:35:46.002Z,101996.59
2022-10-12T09:38:14.061Z,101994.22
2022-10-12T09:40:43.731Z,101993.59
2022-10-12T09:43:12.735Z,101997.84
2022-10-12T09:45:40.692Z,101998.22
2022-10-12T09:48:22.366Z,102004.09
2022-10-12T09:50:53.416Z,101992.88
2022-10-12T09:53:32.376Z,101991.50
2022-10-12T09:56:09.779Z,101990.25
2022-10-12T09:58:49.204Z,101984.34
2022-10-12T10:01:24.257Z,101980.34
2022-10-12T10:04:10.268Z,101980.09
2022-10-12T10:06:39.616Z,101976.09
2022-10-12T10:09:07.956Z,101974.69
2022-10-12T10:11:37.266Z,101977.78
2022-10-12T10:14:05.037Z,101972.03
2022-10-12T10:16:32.910Z,101976.25
2022-10-12T10:19:03.104Z,101981.16
2022-10-12T10:21:34.255Z,101988.00
2022-10-12T10:24:03.444Z,101981.97
2022-10-12T10:26:51.380Z,101983.31
2022-10-12T10:29:32.068Z,101984.56
2022-10-12T10:32:26.814Z,101983.41
2022-10-12T10:35:03.171Z,101980.84
2022-10-12T10:37:32.081Z,101982.38
2022-10-12T10:40:00.940Z,101987.34
2022-10-12T10:42:32.111Z,101978.72
2022-10-12T10:45:03.528Z,101973.66
2022-10-12T10:47:33.810Z,101966.72
2022-10-12T10:50:04.486Z,101976.50
2022-10-12T10:52:34.595Z,101970.44
2022-10-12T10:55:26.341Z,101977.28
2022-10-12T10:58:00.767Z,101979.34
2022-10-12T11:00:38.946Z,101975.06
2022-10-12T11:03:15.657Z,101969.25
2022-10-12T11:05:46.614Z,101968.88
2022-10-12T11:08:20.634Z,101968.31
2022-10-12T11:10:54.038Z,101963.25
2022-10-12T11:13:26.633Z,101961.84
2022-10-12T11:15:59.369Z,101959.53
2022-10-12T11:18:34.912Z,101958.72
2022-10-12T11:21:08.581Z,101957.16
2022-10-12T11:23:43.598Z,101954.44
2022-10-12T11:26:19.375Z,101939.94
2022-10-12T11:28:47.446Z,101941.25
2022-10-12T11:31:21.263Z,101937.38
2022-10-12T11:33:51.059Z,101937.66
2022-10-12T11:36:23.683Z,101928.38
2022-10-12T11:38:54.997Z,101925.03
2022-10-12T11:41:35.459Z,101925.63
2022-10-12T11:44:07.784Z,101923.03
2022-10-12T11:46:43.305Z,101918.50
2022-10-12T11:49:19.410Z,101919.25
2022-10-12T11:51:49.326Z,101914.00
2022-10-12T11:54:26.992Z,101915.88
2022-10-12T11:56:58.847Z,101916.13
2022-10-12T11:59:35.206Z,101914.69
2022-10-12T12:02:14.283Z,101912.06
2022-10-12T12:04:45.483Z,101900.66
2022-10-12T12:07:40.622Z,101902.28
2022-10-12T12:10:42.187Z,101893.50
2022-10-12T12:13:22.665Z,101894.97
2022-10-12T12:16:30.706Z,101898.75
2022-10-12T12:19:36.962Z,101898.66
2022-10-12T12:22:32.968Z,101899.78
2022-10-12T12:25:15.973Z,101885.69
2022-10-12T12:27:46.292Z,101890.34
2022-10-12T12:30:34.273Z,101873.88
2022-10-12T12:33:04.184Z,101878.53
2022-10-12T12:35:37.956Z,101876.53
2022-10-12T12:38:28.180Z,101873.88
2022-10-12T12:40:59.710Z,101871.38
2022-10-12T12:43:53.747Z,101863.97
2022-10-12T12:46:21.993Z,101862.53
2022-10-12T12:49:03.956Z,101856.00
2022-10-12T12:51:43.379Z,101850.63
2022-10-12T12:54:22.213Z,101847.72
2022-10-12T12:57:06.880Z,101848.00
2022-10-12T13:00:05.205Z,101846.41
2022-10-12T13:03:09.248Z,101843.22
2022-10-12T13:06:13.870Z,101842.94
2022-10-12T13:08:58.382Z,101847.59
2022-10-12T13:11:55.683Z,101839.28
2022-10-12T13:14:38.728Z,101826.50
2022-10-12T13:17:35.387Z,101821.13
2022-10-12T13:20:07.342Z,101820.53
2022-10-12T13:22:36.418Z,101821.72
2022-10-12T13:25:08.981Z,101830.56
2022-10-12T13:27:44.180Z,101824.31
2022-10-12T13:30:21.620Z,101816.88
2022-10-12T13:32:56.888Z,101817.75
2022-10-12T13:35:32.567Z,101815.88
2022-10-12T13:38:02.599Z,101809.47
2022-10-12T13:40:37.270Z,101809.31
2022-10-12T13:43:30.991Z,101785.59
2022-10-12T13:45:58.936Z,101780.94
2022-10-12T13:48:46.866Z,101778.78
2022-10-12T13:51:24.636Z,101779.50
2022-10-12T13:53:52.719Z,101778.78
2022-10-12T13:56:24.850Z,101768.44
2022-10-12T13:58:57.263Z,101763.06
2022-10-12T14:01:25.244Z,101764.22
2022-10-12T14:03:53.254Z,101765.97
2022-10-12T14:06:27.926Z,101765.81
2022-10-12T14:08:58.257Z,101773.53
2022-10-12T14:11:28.584Z,101768.19
2022-10-12T14:13:58.185Z,101775.91
2022-10-12T14:16:26.116Z,101769.78
2022-10-12T14:18:54.035Z,101771.00
2022-10-12T14:21:23.955Z,101763.56
2022-10-12T14:23:54.492Z,101762.69
2022-10-12T14:26:34.380Z,101759.06
2022-10-12T14:29:42.668Z,101754.13
2022-10-12T14:32:44.268Z,101762.59
2022-10-12T14:35:15.612Z,101759.97
2022-10-12T14:37:43.896Z,101752.69
2022-10-12T14:40:31.267Z,101756.31
2022-10-12T14:43:03.381Z,101743.69
2022-10-12T14:45:32.400Z,101745.72
2022-10-12T14:48:02.705Z,101747.47
2022-10-12T14:50:32.295Z,101748.47
2022-10-12T14:53:03.457Z,101746.59
2022-10-12T14:55:34.885Z,101735.72
2022-10-12T14:58:03.678Z,101724.94
2022-10-12T15:00:33.439Z,101722.34
2022-10-12T15:03:04.452Z,101721.31
2022-10-12T15:05:33.764Z,101722.34
2022-10-12T15:08:07.470Z,101724.56
2022-10-12T15:10:36.432Z,101732.97
2022-10-12T15:13:04.610Z,101735.88
2022-10-12T15:15:37.408Z,101727.59
2022-10-12T15:18:06.636Z,101737.13
2022-10-12T15:20:35.169Z,101731.25
2022-10-12T15:23:06.889Z,101736.66
2022-10-12T15:25:43.538Z,101731.25
2022-10-12T15:28:11.739Z,101738.97
2022-10-12T15:30:58.028Z,101731.88
2022-10-12T15:33:29.495Z,101727.50
2022-10-12T15:35:57.710Z,101724.16
2022-10-12T15:38:25.600Z,101717.03
2022-10-12T15:40:56.083Z,101724.59
2022-10-12T15:43:23.969Z,101719.53
2022-10-12T15:45:51.754Z,101719.81
2022-10-12T15:48:19.939Z,101707.31
2022-10-12T15:50:50.879Z,101696.28
2022-10-12T15:53:22.312Z,101689.31
2022-10-12T15:55:50.143Z,101692.56
2022-10-12T15:58:18.049Z,101687.31
2022-10-12T16:00:45.927Z,101686.91
2022-10-12T16:03:21.426Z,101691.56
2022-10-12T16:05:55.178Z,101704.78
2022-10-12T16:08:23.112Z,101692.59
2022-10-12T16:10:51.117Z,101683.56
2022-10-12T16:13:18.966Z,101679.38
2022-10-12T16:15:47.022Z,101669.38
2022-10-12T16:18:16.784Z,101675.16
2022-10-12T16:20:49.781Z,101659.75
2022-10-12T16:23:26.052Z,101663.72
2022-10-12T16:25:54.740Z,101666.19
2022-10-12T16:28:23.777Z,101662.38
2022-10-12T16:30:52.345Z,101666.47
2022-10-12T16:33:20.573Z,101672.13
2022-10-12T16:35:48.569Z,101662.44
2022-10-12T16:38:16.385Z,101663.59
2022-10-12T16:40:45.748Z,101665.47
2022-10-12T16:43:13.543Z,101672.28
2022-10-12T16:45:41.392Z,101674.31
2022-10-12T16:48:09.377Z,101674.44
2022-10-12T16:50:40.792Z,101679.97
2022-10-12T16:53:09.285Z,101687.78
2022-10-12T16:55:39.834Z,101678.66
2022-10-12T16:58:09.021Z,101677.78
2022-10-12T17:00:37.023Z,101678.22
2022-10-12T17:03:04.939Z,101696.78
2022-10-12T17:05:32.777Z,101700.72
2022-10-12T17:08:00.693Z,101702.88
2022-10-12T17:10:28.723Z,101694.88
2022-10-12T17:12:56.591Z,101702.44
2022-10-12T17:15:25.837Z,101704.47
2022-10-12T17:17:54.088Z,101704.16
2022-10-12T17:20:21.878Z,101707.06
2022-10-12T17:22:49.992Z,101705.59
2022-10-12T17:25:17.970Z,101718.81
2022-10-12T17:27:48.839Z,101702.69
2022-10-12T17:30:17.338Z,101711.38
2022-10-12T17:32:46.516Z,101709.91
2022-10-12T17:35:14.428Z,101719.63
2022-10-12T17:37:42.449Z,101726.44
2022-10-12T17:40:11.552Z,101714.94
2022-10-12T17:42:39.601Z,101708.00
2022-10-12T17:45:08.288Z,101713.75
2022-10-12T17:47:36.174Z,101718.84
2022-10-12T17:50:06.269Z,101725.47
2022-10-12T17:52:39.388Z,101717.63
2022-10-12T17:55:15.249Z,101720.91
2022-10-12T17:57:52.420Z,101729.72
2022-10-12T18:00:20.395Z,101727.22
2022-10-12T18:02:48.293Z,101714.91
2022-10-12T18:05:17.887Z,101712.44
2022-10-12T18:07:45.937Z,101710.22
2022-10-12T18:10:14.012Z,101700.50
2022-10-12T18:12:41.868Z,101709.16
2022-10-12T18:15:10.154Z,101706.81
2022-10-12T18:17:38.593Z,101713.75
2022-10-12T18:20:07.311Z,101718.38
2022-10-12T18:22:36.479Z,101722.38
2022-10-12T18:25:04.345Z,101717.44
2022-10-12T18:27:32.141Z,101722.31
2022-10-12T18:29:59.877Z,101732.59
2022-10-12T18:32:28.828Z,101734.75
2022-10-12T18:34:56.936Z,101734.00
2022-10-12T18:37:24.804Z,101741.66
2022-10-12T18:39:54.328Z,101739.91
2022-10-12T18:42:22.177Z,101735.78
2022-10-12T18:44:50.077Z,101725.09
2022-10-12T18:47:20.921Z,101735.44
2022-10-12T18:49:52.087Z,101732.09
2022-10-12T18:52:20.873Z,101726.97
2022-10-12T18:54:51.155Z,101729.84
2022-10-12T18:57:20.340Z,101730.13
2022-10-12T18:59:50.422Z,101726.00
2022-10-12T19:02:20.657Z,101724.41
2022-10-12T19:04:49.154Z,101722.03
2022-10-12T19:07:17.434Z,101710.47
2022-10-12T19:09:45.274Z,101713.56
2022-10-12T19:12:16.743Z,101713.88
2022-10-12T19:14:47.786Z,101709.63
2022-10-12T19:17:16.085Z,101715.53
2022-10-12T19:19:43.885Z,101709.41
2022-10-12T19:22:11.850Z,101712.53
2022-10-12T19:24:39.675Z,101701.81
2022-10-12T19:27:07.824Z,101695.84
2022-10-12T19:29:35.667Z,101696.97
2022-10-12T19:32:04.868Z,101694.44
2022-10-12T19:34:32.867Z,101691.22
2022-10-12T19:37:00.929Z,101686.09
2022-10-12T19:39:28.761Z,101679.25
2022-10-12T19:41:56.609Z,101678.50
2022-10-12T19:44:24.585Z,101675.28
2022-10-12T19:46:53.605Z,101679.41
2022-10-12T19:49:22.898Z,101679.41
2022-10-12T19:51:50.756Z,101678.00
2022-10-12T19:54:19.616Z,101679.28
2022-10-12T19:56:47.472Z,101676.78
2022-10-12T19:59:15.323Z,101672.56
2022-10-12T20:01:47.801Z,101681.03
2022-10-12T20:04:16.111Z,101675.06
2022-10-12T20:06:45.548Z,101678.69
2022-10-12T20:09:13.527Z,101682.66
2022-10-12T20:11:41.430Z,101672.94
2022-10-12T20:14:09.382Z,101675.69
2022-10-12T20:16:37.891Z,101690.53
2022-10-12T20:19:07.356Z,101678.91
2022-10-12T20:21:37.298Z,101684.69
2022-10-12T20:24:09.877Z,101683.91
2022-10-12T20:26:37.846Z,101682.69
2022-10-12T20:29:05.797Z,101683.66
2022-10-12T20:31:34.957Z,101686.53
2022-10-12T20:34:02.900Z,101684.91
2022-10-12T20:36:33.000Z,101691.41
2022-10-12T20:39:01.679Z,101696.25
2022-10-12T20:41:30.814Z,101693.75
2022-10-12T20:44:00.320Z,101691.28
2022-10-12T20:46:28.923Z,101694.38
2022-10-12T20:48:58.814Z,101693.66
2022-10-12T20:51:29.563Z,101699.38
2022-10-12T20:53:59.195Z,101699.59
2022-10-12T20:56:27.230Z,101695.25
2022-10-12T20:58:56.478Z,101694.38
2022-10-12T21:01:25.829Z,101692.75
2022-10-12T21:03:53.990Z,101690.22
2022-10-12T21:06:23.353Z,101683.88
2022-10-12T21:08:52.216Z,101690.50
2022-10-12T21:11:20.052Z,101687.97
2022-10-12T21:13:49.186Z,101684.38
2022-10-12T21:16:18.388Z,101691.84
2022-10-12T21:18:46.138Z,101683.94
2022-10-12T21:21:16.166Z,101687.69
2022-10-12T21:23:45.331Z,101689.66
2022-10-12T21:26:15.048Z,101686.19
2022-10-12T21:28:43.122Z,101681.81
2022-10-12T21:31:11.759Z,101687.41
2022-10-12T21:33:41.587Z,101689.28
2022-10-12T21:36:11.380Z,101678.53
2022-10-12T21:38:39.567Z,101690.53
2022-10-12T21:41:08.377Z,101685.03
2022-10-12T21:43:37.068Z,101686.16
2022-10-12T21:46:05.694Z,101689.78
2022-10-12T21:48:34.483Z,101694.47
2022-10-12T21:51:04.645Z,101698.97
2022-10-12T21:53:33.000Z,101696.47
2022-10-12T21:56:05.567Z,101692.84
2022-10-12T21:58:33.346Z,101686.75
2022-10-12T22:01:05.769Z,101687.38
2022-10-12T22:03:33.921Z,101695.84
2022-10-12T22:06:03.259Z,101687.50
2022-10-12T22:08:31.144Z,101684.78
2022-10-12T22:11:04.881Z,101679.41
2022-10-12T22:13:32.704Z,101674.91
2022-10-12T22:16:05.466Z,101674.81
2022-10-12T22:18:33.655Z,101669.81
2022-10-12T22:21:05.459Z,101669.91
2022-10-12T22:23:34.835Z,101665.31
2022-10-12T22:26:05.620Z,101664.44
2022-10-12T22:28:33.897Z,101666.41
2022-10-12T22:31:01.998Z,101678.47
2022-10-12T22:33:29.786Z,101671.41
2022-10-12T22:35:59.235Z,101674.13
2022-10-12T22:38:29.507Z,101674.34
2022-10-12T22:40:58.229Z,101678.19
2022-10-12T22:43:26.808Z,101669.22
2022-10-12T22:45:55.271Z,101669.38
2022-10-12T22:48:23.959Z,101672.31
2022-10-12T22:50:52.073Z,101666.09
2022-10-12T22:53:21.601Z,101670.78
2022-10-12T22:55:53.999Z,101668.19
2022-10-12T22:58:21.794Z,101661.31
2022-10-12T23:00:49.615Z,101664.03
2022-10-12T23:03:17.506Z,101660.56
2022-10-12T23:05:49.193Z,101665.91
2022-10-12T23:08:17.176Z,101656.19
2022-10-12T23:10:44.876Z,101663.66
2022-10-12T23:13:14.151Z,101660.81
2022-10-12T23:15:41.907Z,101658.16
2022-10-12T23:18:09.862Z,101662.78
2022-10-12T23:20:40.368Z,101659.06
2022-10-12T23:23:08.209Z,101657.28
2022-10-12T23:25:40.562Z,101655.69
2022-10-12T23:28:09.410Z,101657.19
2022-10-12T23:30:39.675Z,101660.56
2022-10-12T23:33:07.580Z,101658.94
2022-10-12T23:35:35.332Z,101650.59
2022-10-12T23:38:03.175Z,101650.59
2022-10-12T23:40:30.942Z,101645.13
2022-10-12T23:42:58.726Z,101647.75
2022-10-12T23:45:26.465Z,101653.22
2022-10-12T23:47:55.926Z,101653.97
2022-10-12T23:50:23.707Z,101652.22
2022-10-12T23:52:51.463Z,101649.47
2022-10-12T23:55:19.256Z,101647.63
2022-10-12T23:57:47.649Z,101652.22
